ITY7875 EHRD-ENBR
Flight info
| Callsign | ITY7875 |
|---|---|
| Flight time | N/A |
| Altitude | 24000 |
| Route | TULIP L74 MONIL/N0457F380 P1 GODOS DCT ROKAN/N0459F370 DCT LARGA DCT PENUN/N0460F380 DCT ALUVA |
| Aircraft | A320/M-SDE3FGHIRWY/LB1 |
Departure
| Time | 2026-04-27 12:08 |
|---|---|
| Airport | Rotterdam The Hague Airport (EHRD) |
Arrival
| Time | N/A |
|---|---|
| Airport | Bergen Airport, Flesland (ENBR) |
| Time | Latitude | Longitude | Altitude | Speed | Heading |
|---|---|---|---|---|---|
| 2026-04-27 11:53 | 51.94920 | 4.43525 | 1 ft | 0 kts | 327° |
| 2026-04-27 12:05 | 51.94929 | 4.43516 | 2 ft | 7 kts | 328° |
| 2026-04-27 12:05 | 51.94996 | 4.43601 | 1 ft | 18 kts | 55° |
| 2026-04-27 12:05 | 51.95086 | 4.43602 | 1 ft | 21 kts | 326° |
| 2026-04-27 12:05 | 51.95193 | 4.43489 | 1 ft | 13 kts | 328° |
| 2026-04-27 12:06 | 51.95224 | 4.43360 | 1 ft | 16 kts | 244° |
| 2026-04-27 12:06 | 51.95160 | 4.43194 | 2 ft | 19 kts | 241° |
| 2026-04-27 12:06 | 51.95114 | 4.42991 | 1 ft | 17 kts | 271° |
| 2026-04-27 12:06 | 51.95198 | 4.42862 | 2 ft | 14 kts | 346° |
| 2026-04-27 12:07 | 51.95261 | 4.42953 | 2 ft | 15 kts | 59° |
| 2026-04-27 12:07 | 51.95382 | 4.43250 | 0 ft | 65 kts | 56° |
| 2026-04-27 12:07 | 51.95754 | 4.44187 | 0 ft | 130 kts | 57° |
| 2026-04-27 12:07 | 51.96299 | 4.45574 | 332 ft | 149 kts | 56° |
| 2026-04-27 12:08 | 51.96844 | 4.46994 | 1059 ft | 148 kts | 58° |
| 2026-04-27 12:08 | 51.97223 | 4.48031 | 1493 ft | 154 kts | 59° |
| 2026-04-27 12:08 | 51.97843 | 4.49587 | 1892 ft | 174 kts | 45° |
| 2026-04-27 12:08 | 51.98955 | 4.50478 | 2244 ft | 195 kts | 5° |
| 2026-04-27 12:09 | 52.00303 | 4.49794 | 2596 ft | 221 kts | 324° |
| 2026-04-27 12:09 | 52.01518 | 4.48029 | 3037 ft | 247 kts | 315° |
| 2026-04-27 12:09 | 52.02716 | 4.45930 | 3874 ft | 258 kts | 313° |
| 2026-04-27 12:09 | 52.03913 | 4.43727 | 4899 ft | 261 kts | 313° |
| 2026-04-27 12:10 | 52.05120 | 4.41506 | 5916 ft | 264 kts | 312° |
| 2026-04-27 12:10 | 52.06358 | 4.39263 | 6913 ft | 267 kts | 312° |
| 2026-04-27 12:10 | 52.07609 | 4.37024 | 7879 ft | 270 kts | 312° |
| 2026-04-27 12:10 | 52.08896 | 4.34752 | 8777 ft | 275 kts | 312° |
| 2026-04-27 12:11 | 52.10206 | 4.32458 | 9717 ft | 278 kts | 312° |
| 2026-04-27 12:11 | 52.11513 | 4.30177 | 10601 ft | 281 kts | 312° |
| 2026-04-27 12:11 | 52.12851 | 4.27832 | 11460 ft | 283 kts | 311° |
| 2026-04-27 12:11 | 52.14256 | 4.25460 | 11761 ft | 309 kts | 316° |
| 2026-04-27 12:12 | 52.15977 | 4.22998 | 11577 ft | 347 kts | 319° |
| 2026-04-27 12:12 | 52.17889 | 4.20414 | 11907 ft | 364 kts | 319° |
| 2026-04-27 12:12 | 52.19866 | 4.17781 | 12523 ft | 371 kts | 319° |
| 2026-04-27 12:12 | 52.21893 | 4.15113 | 13197 ft | 377 kts | 320° |
| 2026-04-27 12:13 | 52.23960 | 4.12418 | 13783 ft | 385 kts | 320° |
| 2026-04-27 12:13 | 52.26082 | 4.09673 | 14328 ft | 392 kts | 320° |
| 2026-04-27 12:13 | 52.28211 | 4.06937 | 14865 ft | 397 kts | 320° |
| 2026-04-27 12:13 | 52.30398 | 4.04146 | 15450 ft | 401 kts | 320° |
| 2026-04-27 12:14 | 52.32613 | 4.01340 | 16063 ft | 403 kts | 320° |
| 2026-04-27 12:14 | 52.34839 | 3.98542 | 16690 ft | 405 kts | 320° |
| 2026-04-27 12:14 | 52.37087 | 3.95736 | 17328 ft | 407 kts | 321° |
| 2026-04-27 12:14 | 52.39344 | 3.92939 | 17966 ft | 408 kts | 321° |
| 2026-04-27 12:15 | 52.41618 | 3.90152 | 18606 ft | 409 kts | 322° |
| 2026-04-27 12:15 | 52.44049 | 3.87700 | 19144 ft | 412 kts | 330° |
| 2026-04-27 12:15 | 52.46692 | 3.85827 | 19698 ft | 416 kts | 339° |
| 2026-04-27 12:15 | 52.49460 | 3.84557 | 20096 ft | 423 kts | 346° |
| 2026-04-27 12:16 | 52.52394 | 3.83863 | 20484 ft | 429 kts | 353° |
| 2026-04-27 12:16 | 52.55395 | 3.83797 | 20900 ft | 434 kts | 0° |
| 2026-04-27 12:16 | 52.58271 | 3.84471 | 22755 ft | 391 kts | 10° |
| 2026-04-27 12:16 | 52.60646 | 3.85745 | 25467 ft | 330 kts | 15° |
| 2026-04-27 12:17 | 52.62656 | 3.87116 | 26977 ft | 312 kts | 19° |
| 2026-04-27 12:17 | 52.64743 | 3.88662 | 26458 ft | 344 kts | 14° |
| 2026-04-27 12:17 | 52.67293 | 3.89698 | 24478 ft | 416 kts | 8° |
| 2026-04-27 12:17 | 52.70286 | 3.90857 | 23659 ft | 455 kts | 11° |